createdAt,value
2018-12-05T00:00:17.549Z,99.63
2018-12-05T00:00:57.979Z,99.35
2018-12-05T00:01:38.334Z,98.59
2018-12-05T00:02:18.798Z,98.4
2018-12-05T00:02:59.301Z,99.99
2018-12-05T00:03:39.671Z,99.99
2018-12-05T00:04:20.078Z,99.99
2018-12-05T00:05:00.488Z,99.99
2018-12-05T00:05:40.870Z,99.73
2018-12-05T00:06:21.279Z,99.44
2018-12-05T00:07:01.728Z,99.54
2018-12-05T00:07:42.127Z,98.97
2018-12-05T00:08:22.570Z,98.11
2018-12-05T00:09:05.931Z,97.74
2018-12-05T00:09:46.494Z,96.97
2018-12-05T00:10:26.934Z,96.88
2018-12-05T00:11:07.327Z,97.36
2018-12-05T00:11:47.736Z,96.22
2018-12-05T00:12:28.189Z,97.64
2018-12-05T00:13:08.739Z,97.26
2018-12-05T00:15:02.885Z,98.16
2018-12-05T00:15:55.580Z,99.39
2018-12-05T00:16:48.147Z,99.3
2018-12-05T00:17:40.128Z,98.92
2018-12-05T00:18:32.236Z,99.87
2018-12-05T00:19:24.798Z,99.96
2018-12-05T00:20:17.937Z,99.99
2018-12-05T00:21:10.207Z,99.99
2018-12-05T00:22:02.276Z,99.99
2018-12-05T00:22:54.437Z,99.99
2018-12-05T00:23:46.881Z,99.99
2018-12-05T00:24:39.884Z,99.99
2018-12-05T00:25:31.974Z,99.99
2018-12-05T00:26:26.823Z,99.96
2018-12-05T00:27:18.711Z,99.99
2018-12-05T00:29:17.793Z,99.99
2018-12-05T00:29:58.158Z,99.99
2018-12-05T00:30:38.537Z,99.99
2018-12-05T00:31:18.947Z,99.99
2018-12-05T00:31:59.273Z,99.99
2018-12-05T00:34:29.963Z,99.99
2018-12-05T00:35:22.358Z,99.99
2018-12-05T00:36:14.765Z,99.99
2018-12-05T00:37:07.449Z,99.99
2018-12-05T00:37:59.619Z,99.99
2018-12-05T00:38:51.857Z,99.99
2018-12-05T00:39:44.171Z,99.99
2018-12-05T00:40:36.820Z,99.99
2018-12-05T00:41:28.771Z,99.99
2018-12-05T00:42:21.149Z,99.99
2018-12-05T00:43:13.152Z,99.99
2018-12-05T00:44:05.823Z,99.99
2018-12-05T00:44:58.244Z,99.99
2018-12-05T00:45:50.702Z,99.99
2018-12-05T00:46:43.422Z,99.99
2018-12-05T00:47:35.644Z,99.99
2018-12-05T00:48:27.865Z,99.99
2018-12-05T00:49:19.991Z,99.99
2018-12-05T00:50:12.213Z,99.99
2018-12-05T00:51:04.625Z,99.99
2018-12-05T00:51:56.600Z,99.99
2018-12-05T00:52:48.723Z,99.99
2018-12-05T00:53:41.263Z,99.99
2018-12-05T00:54:33.371Z,99.99
2018-12-05T00:55:25.488Z,99.99
2018-12-05T00:56:16.153Z,99.99
2018-12-05T00:57:00.354Z,99.99
2018-12-05T00:57:40.756Z,99.99
2018-12-05T00:58:21.102Z,99.99
2018-12-05T00:59:01.492Z,99.99
2018-12-05T00:59:41.819Z,99.99
2018-12-05T01:00:22.295Z,99.99
2018-12-05T01:01:02.731Z,99.99
2018-12-05T01:01:43.149Z,99.99
2018-12-05T01:02:23.487Z,99.99
2018-12-05T01:03:03.913Z,99.99
2018-12-05T01:03:44.315Z,99.99
2018-12-05T01:04:24.792Z,99.99
2018-12-05T01:05:05.159Z,99.99
2018-12-05T01:05:45.570Z,99.99
2018-12-05T01:06:25.964Z,99.99
2018-12-05T01:07:06.341Z,99.99
2018-12-05T01:07:46.808Z,99.99
2018-12-05T01:08:27.126Z,99.99
2018-12-05T01:09:07.484Z,99.99
2018-12-05T01:09:47.981Z,99.99
2018-12-05T01:10:28.389Z,99.99
2018-12-05T01:11:08.789Z,99.99
2018-12-05T01:11:49.195Z,99.99
2018-12-05T01:12:29.567Z,99.99
2018-12-05T01:13:09.977Z,99.99
2018-12-05T01:13:50.326Z,99.99
2018-12-05T01:14:30.738Z,99.99
2018-12-05T01:15:11.110Z,99.99
2018-12-05T01:15:51.499Z,99.99
2018-12-05T01:16:31.870Z,99.99
2018-12-05T01:17:12.265Z,99.99
2018-12-05T01:17:52.659Z,99.99
2018-12-05T01:18:33.069Z,99.99
2018-12-05T01:19:13.510Z,99.99
2018-12-05T01:19:53.817Z,99.99
2018-12-05T01:20:34.171Z,99.99
2018-12-05T01:21:14.641Z,99.99
2018-12-05T01:21:55.047Z,99.99
2018-12-05T01:22:35.401Z,99.99
2018-12-05T01:23:15.789Z,99.99
2018-12-05T01:23:56.264Z,99.99
2018-12-05T01:24:36.654Z,99.99
2018-12-05T01:25:16.999Z,99.99
2018-12-05T01:25:57.434Z,99.99
2018-12-05T01:26:37.790Z,99.99
2018-12-05T01:27:18.214Z,99.99
2018-12-05T01:27:58.568Z,99.99
2018-12-05T01:28:39.007Z,99.99
2018-12-05T01:29:19.417Z,99.99
2018-12-05T01:29:59.815Z,99.99
2018-12-05T01:30:40.263Z,99.99
2018-12-05T01:31:20.564Z,99.99
2018-12-05T01:32:01.002Z,99.99
2018-12-05T01:32:41.398Z,99.99
2018-12-05T01:33:21.778Z,99.99
2018-12-05T01:34:02.122Z,99.99
2018-12-05T01:34:42.509Z,99.99
2018-12-05T01:35:22.956Z,99.99
2018-12-05T01:36:03.425Z,99.99
2018-12-05T01:36:43.794Z,99.99
2018-12-05T01:37:24.131Z,99.99
2018-12-05T01:38:04.502Z,99.99
2018-12-05T01:38:44.916Z,99.99
2018-12-05T01:39:25.411Z,99.99
2018-12-05T01:40:05.667Z,99.99
2018-12-05T01:40:46.128Z,99.77
2018-12-05T01:41:26.438Z,99.99
2018-12-05T01:42:06.857Z,99.99
2018-12-05T01:42:47.245Z,99.99
2018-12-05T01:43:27.694Z,99.99
2018-12-05T01:44:08.090Z,99.99
2018-12-05T01:44:48.517Z,99.99
2018-12-05T01:45:28.806Z,99.99
2018-12-05T01:46:09.303Z,99.99
2018-12-05T01:46:49.661Z,99.99
2018-12-05T01:47:30.067Z,99.99
2018-12-05T01:48:10.495Z,99.99
2018-12-05T01:48:50.892Z,99.99
2018-12-05T01:49:31.308Z,99.99
2018-12-05T01:50:11.749Z,99.99
2018-12-05T01:50:52.057Z,99.99
2018-12-05T01:51:32.436Z,99.99
2018-12-05T01:52:12.794Z,99.99
2018-12-05T01:52:53.151Z,99.99
2018-12-05T01:53:33.551Z,99.99
2018-12-05T01:54:13.987Z,99.99
2018-12-05T01:54:54.390Z,99.99
2018-12-05T01:55:34.710Z,99.99
2018-12-05T01:56:15.144Z,99.99
2018-12-05T01:56:55.644Z,99.39
2018-12-05T01:57:36.045Z,99.96
2018-12-05T01:58:16.474Z,99.99
2018-12-05T01:58:56.840Z,99.99
2018-12-05T01:59:37.270Z,99.99
2018-12-05T02:00:17.764Z,99.68
2018-12-05T02:00:58.070Z,99.99
2018-12-05T02:01:38.449Z,99.99
2018-12-05T02:02:19.712Z,99.77
2018-12-05T02:02:59.234Z,99.11
2018-12-05T02:03:39.628Z,99.99
2018-12-05T02:04:20.040Z,99.77
2018-12-05T02:05:00.398Z,99.3
2018-12-05T02:05:40.765Z,99.77
2018-12-05T02:06:21.228Z,99.77
2018-12-05T02:07:01.504Z,99.87
2018-12-05T02:07:41.915Z,99.68
2018-12-05T02:08:22.313Z,99.58
2018-12-05T02:09:02.723Z,99.99
2018-12-05T02:09:43.076Z,99.87
2018-12-05T02:10:23.522Z,99.82
2018-12-05T02:11:03.887Z,99.99
2018-12-05T02:11:44.335Z,99.99
2018-12-05T02:12:24.694Z,99.99
2018-12-05T02:13:04.958Z,99.99
2018-12-05T02:13:45.391Z,99.99
2018-12-05T02:14:25.875Z,99.99
2018-12-05T02:15:06.225Z,99.99
2018-12-05T02:15:46.551Z,99.99
2018-12-05T02:16:26.991Z,99.99
2018-12-05T02:17:07.387Z,99.99
2018-12-05T02:17:47.749Z,99.99
2018-12-05T02:18:28.217Z,99.99
2018-12-05T02:19:08.590Z,99.99
2018-12-05T02:19:49.013Z,99.99
2018-12-05T02:20:29.391Z,99.99
2018-12-05T02:21:09.757Z,99.99
2018-12-05T02:21:50.165Z,99.99
2018-12-05T02:22:30.539Z,99.99
2018-12-05T02:23:10.916Z,99.99
2018-12-05T02:23:51.458Z,99.99
2018-12-05T02:24:31.820Z,99.99
2018-12-05T02:25:12.207Z,99.99
2018-12-05T02:25:52.603Z,99.99
2018-12-05T02:26:33.038Z,99.99
2018-12-05T02:27:13.475Z,99.99
2018-12-05T02:27:53.798Z,99.99
2018-12-05T02:28:34.199Z,99.99
2018-12-05T02:29:14.571Z,99.96
2018-12-05T02:29:54.987Z,99.91
2018-12-05T02:30:35.397Z,99.99
2018-12-05T02:31:15.765Z,99.99
2018-12-05T02:31:56.170Z,99.99
2018-12-05T02:32:36.520Z,99.99
2018-12-05T02:33:16.927Z,99.99
2018-12-05T02:33:57.264Z,99.99
2018-12-05T02:34:37.746Z,99.99
2018-12-05T02:35:18.127Z,99.99
2018-12-05T02:35:58.473Z,99.99
2018-12-05T02:36:38.839Z,99.99
2018-12-05T02:37:19.294Z,99.99
2018-12-05T02:37:59.733Z,99.99
2018-12-05T02:38:40.038Z,99.99
2018-12-05T02:39:20.422Z,99.99
2018-12-05T02:40:00.908Z,99.99
2018-12-05T02:40:41.274Z,99.99
2018-12-05T02:41:21.764Z,99.99
2018-12-05T02:42:02.119Z,99.99
2018-12-05T02:42:42.561Z,99.99
2018-12-05T02:43:22.935Z,99.99
2018-12-05T02:44:03.328Z,99.99
2018-12-05T02:44:43.635Z,99.99
2018-12-05T02:45:24.111Z,99.99
2018-12-05T02:46:04.415Z,99.99
2018-12-05T02:46:44.875Z,99.99
2018-12-05T02:47:25.256Z,99.99
2018-12-05T02:48:05.738Z,99.99
2018-12-05T02:48:46.125Z,99.99
2018-12-05T02:49:26.587Z,99.99
2018-12-05T02:50:06.935Z,99.99
2018-12-05T02:50:47.414Z,99.99
2018-12-05T02:51:27.745Z,99.99
2018-12-05T02:52:08.154Z,99.99
2018-12-05T02:52:48.531Z,99.99
2018-12-05T02:53:28.944Z,99.99
2018-12-05T02:54:09.321Z,99.99
2018-12-05T02:54:49.824Z,99.99
2018-12-05T02:55:30.154Z,99.99
2018-12-05T02:56:10.589Z,99.99
2018-12-05T02:56:50.988Z,99.99
2018-12-05T02:57:31.348Z,99.99
2018-12-05T02:58:11.776Z,99.99
2018-12-05T02:58:52.216Z,99.99
2018-12-05T02:59:32.527Z,99.99
2018-12-05T03:00:12.975Z,99.99
2018-12-05T03:00:53.365Z,99.99
2018-12-05T03:01:33.700Z,99.99
2018-12-05T03:02:14.139Z,99.99
2018-12-05T03:02:54.461Z,99.99
2018-12-05T03:03:34.798Z,99.99
2018-12-05T03:04:15.253Z,99.99
2018-12-05T03:04:55.602Z,99.99
2018-12-05T03:05:36.088Z,99.99
2018-12-05T03:06:16.459Z,99.99
2018-12-05T03:06:56.918Z,99.99
2018-12-05T03:07:37.307Z,99.96
2018-12-05T03:08:17.705Z,99.99
2018-12-05T03:08:58.070Z,99.99
2018-12-05T03:09:38.446Z,99.99
2018-12-05T03:10:18.816Z,99.99
2018-12-05T03:10:59.282Z,99.99
2018-12-05T03:11:39.648Z,99.99
2018-12-05T03:12:19.989Z,99.49
2018-12-05T03:13:00.422Z,98.25
2018-12-05T03:13:40.835Z,96.64
2018-12-05T03:14:21.258Z,97.21
2018-12-05T03:15:01.707Z,96.45
2018-12-05T03:15:42.068Z,97.12
2018-12-05T03:16:22.474Z,99.11
2018-12-05T03:17:02.873Z,98.16
2018-12-05T03:17:43.254Z,98.44
2018-12-05T03:18:23.563Z,97.55
2018-12-05T03:19:04.109Z,96.26
2018-12-05T03:19:44.419Z,96.55
2018-12-05T03:20:24.797Z,96.08
2018-12-05T03:21:05.300Z,97.78
2018-12-05T03:21:45.659Z,97.88
2018-12-05T03:22:26.044Z,98.73
2018-12-05T03:23:06.395Z,98.07
2018-12-05T03:23:46.869Z,96.17
2018-12-05T03:24:27.166Z,95.98
2018-12-05T03:25:07.696Z,97.4
2018-12-05T03:25:48.040Z,98.59
2018-12-05T03:26:28.460Z,97.74
2018-12-05T03:27:08.927Z,97.12
2018-12-05T03:27:49.268Z,97.74
2018-12-05T03:28:29.639Z,96.83
2018-12-05T03:29:10.020Z,96.03
2018-12-05T03:29:50.430Z,96.92
2018-12-05T03:30:30.829Z,96.92
2018-12-05T03:31:11.240Z,95.6
2018-12-05T03:31:51.634Z,96.08
2018-12-05T03:32:32.038Z,96.36
2018-12-05T03:33:12.459Z,96.73
2018-12-05T03:33:52.848Z,96.17
2018-12-05T03:34:33.252Z,95.98
2018-12-05T03:35:13.611Z,97.31
2018-12-05T03:35:54.007Z,97.5
2018-12-05T03:36:34.431Z,96.17
2018-12-05T03:37:14.922Z,97.31
2018-12-05T03:37:55.271Z,98.63
2018-12-05T03:38:35.763Z,98.44
2018-12-05T03:39:16.124Z,98.44
2018-12-05T03:39:56.411Z,97.97
2018-12-05T03:40:36.850Z,98.07
2018-12-05T03:41:17.400Z,98.54
2018-12-05T03:41:57.727Z,99.39
2018-12-05T03:42:38.156Z,99.96
2018-12-05T03:43:18.536Z,99.99
2018-12-05T03:43:58.904Z,99.99
2018-12-05T03:44:39.298Z,99.58
2018-12-05T03:45:19.667Z,98.54
2018-12-05T03:46:00.042Z,97.78
2018-12-05T03:46:40.499Z,96.83
2018-12-05T03:47:21.015Z,98.63
2018-12-05T03:48:01.427Z,98.35
2018-12-05T03:48:41.854Z,99.87
2018-12-05T03:49:22.231Z,99.99
2018-12-05T03:50:02.517Z,99.99
2018-12-05T03:50:42.924Z,99.49
2018-12-05T03:51:23.324Z,99.58
2018-12-05T03:52:03.753Z,99.99
2018-12-05T03:52:44.118Z,99.77
2018-12-05T03:53:24.570Z,98.16
2018-12-05T03:54:04.940Z,97.88
2018-12-05T03:54:45.284Z,99.39
2018-12-05T03:55:25.692Z,98.63
2018-12-05T03:56:06.128Z,97.5
2018-12-05T03:56:46.481Z,98.25
2018-12-05T03:57:26.836Z,98.49
2018-12-05T03:58:07.375Z,98.87
2018-12-05T03:58:47.659Z,99.26
2018-12-05T03:59:28.040Z,99.44
2018-12-05T04:00:08.496Z,97.88
2018-12-05T04:00:48.980Z,95.17
2018-12-05T04:01:29.333Z,94.23
2018-12-05T04:02:09.768Z,93.27
2018-12-05T04:02:50.222Z,94.7
2018-12-05T04:03:30.553Z,95.84
2018-12-05T04:04:11.070Z,94.79
2018-12-05T04:04:51.405Z,95.27
2018-12-05T04:05:31.902Z,96.36
2018-12-05T04:06:12.313Z,95.74
2018-12-05T04:06:52.708Z,95.31
2018-12-05T04:07:33.131Z,95.03
2018-12-05T04:08:13.567Z,93.7
2018-12-05T04:08:53.845Z,91.71
2018-12-05T04:09:34.290Z,92.47
2018-12-05T04:10:14.714Z,92.94
2018-12-05T04:10:55.027Z,94.27
2018-12-05T04:11:35.452Z,95.03
2018-12-05T04:12:15.873Z,94.56
2018-12-05T04:12:56.242Z,93.8
2018-12-05T04:13:36.669Z,93.13
2018-12-05T04:14:17.033Z,93.41
2018-12-05T04:14:57.447Z,93.37
2018-12-05T04:15:37.827Z,91.33
2018-12-05T04:16:18.191Z,90.76
2018-12-05T04:16:58.548Z,88.1
2018-12-05T04:17:38.980Z,86.77
2018-12-05T04:18:19.334Z,86.2
2018-12-05T04:18:59.746Z,87.34
2018-12-05T04:19:40.231Z,87.43
2018-12-05T04:20:20.634Z,89
2018-12-05T04:21:00.997Z,90.28
2018-12-05T04:21:41.466Z,90.24
2018-12-05T04:22:21.853Z,90.52
2018-12-05T04:23:02.162Z,90.52
2018-12-05T04:23:42.644Z,89.95
2018-12-05T04:24:22.927Z,92.04
2018-12-05T04:25:03.446Z,92.8
2018-12-05T04:25:43.854Z,93.94
2018-12-05T04:26:24.287Z,94.6
2018-12-05T04:27:04.656Z,94.23
2018-12-05T04:27:45.065Z,95.55
2018-12-05T05:06:51.118Z,99.99
2018-12-05T05:07:43.199Z,99.99
2018-12-05T05:08:35.231Z,99.99
2018-12-05T05:09:28.970Z,99.99
2018-12-05T05:10:20.708Z,99.99
2018-12-05T05:12:21.798Z,99.99
2018-12-05T05:13:13.803Z,99.99
2018-12-05T05:14:05.629Z,99.99
2018-12-05T05:14:57.588Z,99.99
2018-12-05T05:15:49.607Z,99.99
2018-12-05T05:16:38.123Z,99.99
2018-12-05T05:17:18.208Z,99.99
2018-12-05T05:17:58.583Z,99.99
2018-12-05T05:18:38.927Z,99.99
2018-12-05T05:19:19.289Z,99.99
2018-12-05T05:19:59.714Z,99.99
2018-12-05T05:20:40.171Z,99.99
2018-12-05T05:21:20.598Z,99.99
2018-12-05T05:22:01.003Z,99.99
2018-12-05T05:22:41.347Z,99.99
2018-12-05T05:23:21.771Z,99.99
2018-12-05T05:24:02.174Z,99.99
2018-12-05T05:24:42.569Z,99.99
2018-12-05T05:25:23.015Z,99.99
2018-12-05T05:26:03.354Z,99.99
2018-12-05T05:26:43.769Z,99.99
2018-12-05T05:27:24.180Z,99.99
2018-12-05T05:28:04.639Z,99.99
2018-12-05T05:28:45.011Z,99.99
2018-12-05T05:29:25.478Z,99.99
2018-12-05T05:30:05.861Z,99.99
2018-12-05T05:30:46.139Z,99.99
2018-12-05T05:31:26.623Z,99.99
2018-12-05T05:32:06.974Z,99.99
2018-12-05T05:32:47.356Z,99.99
2018-12-05T05:33:27.772Z,99.99
2018-12-05T05:34:08.170Z,99.99
2018-12-05T05:34:48.567Z,99.99
2018-12-05T05:35:28.931Z,99.99
2018-12-05T05:36:09.336Z,99.99
2018-12-05T05:36:49.691Z,99.99
2018-12-05T05:37:30.262Z,99.99
2018-12-05T05:38:10.677Z,99.99
2018-12-05T05:38:51.135Z,99.99
2018-12-05T05:39:31.512Z,99.99
2018-12-05T05:40:11.941Z,99.99
2018-12-05T05:40:52.234Z,99.99
2018-12-05T05:41:32.714Z,99.99
2018-12-05T05:42:13.103Z,99.99
2018-12-05T05:42:53.570Z,99.99
2018-12-05T05:43:34.305Z,99.99
2018-12-05T05:44:14.399Z,99.99
2018-12-05T05:44:54.804Z,99.99
2018-12-05T05:45:35.152Z,99.99
2018-12-05T05:46:15.628Z,99.99
2018-12-05T05:46:55.968Z,99.99
2018-12-05T05:47:36.373Z,99.99
2018-12-05T05:48:16.798Z,99.99
2018-12-05T05:48:57.152Z,99.99
2018-12-05T05:49:37.625Z,99.99
2018-12-05T05:50:17.996Z,99.99
2018-12-05T05:50:58.302Z,99.99
2018-12-05T05:51:38.773Z,99.99
2018-12-05T05:52:19.167Z,99.99
2018-12-05T05:52:59.621Z,99.99
2018-12-05T05:53:39.978Z,99.99
2018-12-05T05:54:20.417Z,99.99
2018-12-05T05:55:00.775Z,99.99
2018-12-05T05:55:41.108Z,99.99
2018-12-05T05:56:21.510Z,99.99
2018-12-05T05:57:02.146Z,99.99
2018-12-05T05:57:42.757Z,99.99
2018-12-05T05:58:23.126Z,99.99
2018-12-05T05:59:03.515Z,99.99
2018-12-05T05:59:44.089Z,99.99
2018-12-05T06:00:24.457Z,99.99
2018-12-05T06:01:04.899Z,99.99
2018-12-05T06:01:45.363Z,99.99
2018-12-05T06:02:25.681Z,99.99
2018-12-05T06:03:06.158Z,99.99
2018-12-05T06:03:46.468Z,99.99
2018-12-05T06:04:26.941Z,99.99
2018-12-05T06:05:07.343Z,99.99
2018-12-05T06:05:47.643Z,99.99
2018-12-05T06:06:28.086Z,99.99
2018-12-05T06:07:08.528Z,99.99
2018-12-05T06:07:48.962Z,99.99
2018-12-05T06:08:29.239Z,99.99
2018-12-05T06:09:09.667Z,99.99
2018-12-05T06:09:50.098Z,99.99
2018-12-05T06:10:30.520Z,99.99
2018-12-05T06:11:10.920Z,99.99
2018-12-05T06:11:51.367Z,99.99
2018-12-05T06:12:31.742Z,99.99
2018-12-05T06:13:12.208Z,99.99
2018-12-05T06:13:52.565Z,99.99
2018-12-05T06:14:33.040Z,99.99
2018-12-05T06:15:13.482Z,99.99
2018-12-05T06:15:53.905Z,99.99
2018-12-05T06:16:34.407Z,99.99
2018-12-05T06:17:14.807Z,99.99
2018-12-05T06:17:55.270Z,99.99
2018-12-05T06:18:35.600Z,99.99
2018-12-05T06:19:15.984Z,99.99
2018-12-05T06:19:56.502Z,99.99
2018-12-05T06:20:37.960Z,99.99
2018-12-05T06:21:17.748Z,99.91
2018-12-05T06:21:58.196Z,99.99
2018-12-05T06:22:38.574Z,99.99
2018-12-05T06:23:19.003Z,99.99
2018-12-05T06:23:59.447Z,99.99
2018-12-05T06:24:39.859Z,99.99
2018-12-05T06:25:20.346Z,99.99
2018-12-05T06:26:00.725Z,99.99
2018-12-05T06:26:41.085Z,99.99
2018-12-05T06:27:21.550Z,99.99
2018-12-05T06:28:03.066Z,99.99
2018-12-05T06:28:43.624Z,99.99
2018-12-05T06:29:24.484Z,99.99
2018-12-05T06:30:07.389Z,99.99
2018-12-05T06:30:48.794Z,99.99
2018-12-05T06:31:29.246Z,99.99
2018-12-05T06:32:09.516Z,99.99
2018-12-05T06:32:49.945Z,99.99
2018-12-05T06:33:30.890Z,99.99
2018-12-05T06:34:10.856Z,99.99
2018-12-05T06:34:51.234Z,99.99
2018-12-05T06:35:31.620Z,99.99
2018-12-05T06:36:11.988Z,99.99
2018-12-05T06:36:52.436Z,99.99
2018-12-05T06:37:32.789Z,99.99
2018-12-05T06:38:13.216Z,99.99
2018-12-05T06:38:53.514Z,99.99
2018-12-05T06:39:33.977Z,99.99
2018-12-05T06:40:14.429Z,99.99
2018-12-05T06:40:57.202Z,99.99
2018-12-05T06:41:38.365Z,99.54
2018-12-05T06:42:18.858Z,99.99
2018-12-05T06:42:59.228Z,99.16
2018-12-05T06:43:39.775Z,98.3
2018-12-05T06:44:20.210Z,99.63
2018-12-05T06:45:00.637Z,99.58
2018-12-05T06:45:41.838Z,98.68
2018-12-05T06:46:22.196Z,98.73
2018-12-05T06:47:02.761Z,97.69
2018-12-05T06:47:43.183Z,96.97
2018-12-05T06:48:23.672Z,97.26
2018-12-05T06:49:03.985Z,98.21
2018-12-05T06:49:44.525Z,98.78
2018-12-05T06:50:24.875Z,98.78
2018-12-05T06:51:05.471Z,99.91
2018-12-05T06:51:45.998Z,99.99
2018-12-05T06:52:26.448Z,99.16
2018-12-05T06:53:07.025Z,98.59
2018-12-05T06:53:47.491Z,99.82
2018-12-05T06:54:28.053Z,99.73
2018-12-05T06:55:08.630Z,98.87
2018-12-05T06:55:49.267Z,98.97
2018-12-05T06:56:29.695Z,98.87
2018-12-05T06:57:10.078Z,98.4
2018-12-05T06:57:53.266Z,99.35
2018-12-05T06:58:36.259Z,99.82
2018-12-05T06:59:16.754Z,99.73
2018-12-05T06:59:57.223Z,99.99
2018-12-05T07:00:37.763Z,99.99
2018-12-05T07:01:18.202Z,99.99
2018-12-05T07:01:58.604Z,99.99
2018-12-05T07:02:39.255Z,99.99
2018-12-05T07:03:32.936Z,99.99
2018-12-05T07:05:31.131Z,99.02
2018-12-05T07:06:11.453Z,97.78
2018-12-05T07:06:51.880Z,96.08
2018-12-05T07:07:32.373Z,95.98
2018-12-05T07:08:12.795Z,95.98
2018-12-05T07:08:53.161Z,94.93
2018-12-05T07:09:33.747Z,96.08
2018-12-05T07:10:14.171Z,95.98
2018-12-05T07:10:54.541Z,95.98
2018-12-05T07:11:34.988Z,96.08
2018-12-05T07:12:15.407Z,96.36
2018-12-05T07:12:55.896Z,96.17
2018-12-05T07:13:36.340Z,95.41
2018-12-05T07:14:16.739Z,95.79
2018-12-05T07:14:57.191Z,96.55
2018-12-05T07:15:37.611Z,97.02
2018-12-05T07:16:18.017Z,96.22
2018-12-05T07:16:58.667Z,97.5
2018-12-05T07:17:39.113Z,98.21
2018-12-05T07:18:19.847Z,97.5
2018-12-05T07:19:00.681Z,97.78
2018-12-05T07:19:40.749Z,99.63
2018-12-05T07:20:22.125Z,99.63
2018-12-05T07:21:01.757Z,98.16
2018-12-05T07:21:42.250Z,98.26
2018-12-05T07:22:22.612Z,98.73
2018-12-05T07:23:03.037Z,99.3
2018-12-05T07:23:43.526Z,98.16
2018-12-05T07:24:24.062Z,97.78
2018-12-05T07:25:04.679Z,96.26
2018-12-05T07:25:45.079Z,96.17
2018-12-05T07:26:25.421Z,97.12
2018-12-05T07:27:05.845Z,97.12
2018-12-05T07:27:46.463Z,96.69
2018-12-05T07:28:26.959Z,97.92
2018-12-05T07:29:07.558Z,98.11
2018-12-05T07:29:48.007Z,98.49
2018-12-05T07:30:29.515Z,99.35
2018-12-05T07:31:08.888Z,99.44
2018-12-05T07:31:49.377Z,98.68
2018-12-05T07:32:29.858Z,99.99
2018-12-05T07:33:10.267Z,99.99
2018-12-05T07:33:50.679Z,99.99
2018-12-05T07:34:31.138Z,99.99
2018-12-05T07:35:12.157Z,99.99
2018-12-05T07:35:52.035Z,99.99
2018-12-05T07:36:32.672Z,99.99
2018-12-05T07:37:13.118Z,99.99
2018-12-05T07:37:53.695Z,99.99
2018-12-05T07:38:35.093Z,99.99
2018-12-05T07:39:14.797Z,99.99
2018-12-05T07:39:55.263Z,99.99
2018-12-05T07:40:35.837Z,99.99
2018-12-05T07:41:16.113Z,99.99
2018-12-05T07:41:56.573Z,99.99
2018-12-05T07:42:37.163Z,99.99
2018-12-05T07:43:17.564Z,99.99
2018-12-05T07:43:58.162Z,99.99
2018-12-05T07:44:38.485Z,99.99
2018-12-05T07:45:18.999Z,99.99
2018-12-05T07:45:59.559Z,99.99
2018-12-05T07:46:40.217Z,99.99
2018-12-05T07:47:20.572Z,99.99
2018-12-05T07:48:00.947Z,99.99
2018-12-05T07:48:41.560Z,99.99
2018-12-05T07:49:22.657Z,99.99
2018-12-05T07:50:02.430Z,99.99
2018-12-05T07:50:42.944Z,99.82
2018-12-05T07:51:23.351Z,99.99
2018-12-05T07:52:03.783Z,99.99
2018-12-05T07:52:44.235Z,99.99
2018-12-05T07:53:24.690Z,99.99
2018-12-05T07:54:05.491Z,99.99
2018-12-05T07:54:45.944Z,99.54
2018-12-05T07:55:27.365Z,99.99
2018-12-05T07:56:07.948Z,99.99
2018-12-05T07:56:48.479Z,99.99
2018-12-05T07:57:29.002Z,99.99
2018-12-05T07:58:09.530Z,98.49
2018-12-05T07:58:50.043Z,99.73
2018-12-05T07:59:30.535Z,99.73
2018-12-05T08:00:11.183Z,99.06
2018-12-05T08:00:51.594Z,99.54
2018-12-05T08:01:32.110Z,99.35
2018-12-05T08:02:13.630Z,98.68
2018-12-05T08:02:53.835Z,99.54
2018-12-05T08:03:34.414Z,99.44
2018-12-05T08:04:14.971Z,99.35
2018-12-05T08:04:55.799Z,98.4
2018-12-05T08:05:36.652Z,99.35
2018-12-05T08:06:17.282Z,99.99
2018-12-05T08:06:58.328Z,99.99
2018-12-05T08:07:39.095Z,99.99
2018-12-05T08:08:19.622Z,99.44
2018-12-05T08:09:00.141Z,99.44
2018-12-05T08:09:40.964Z,99.82
2018-12-05T08:10:21.698Z,99.99
2018-12-05T08:11:02.406Z,99.91
2018-12-05T08:11:42.871Z,99.73
2018-12-05T08:12:24.114Z,99.99
2018-12-05T08:13:04.723Z,99.99
2018-12-05T08:13:45.582Z,99.99
2018-12-05T08:14:26.092Z,99.87
2018-12-05T08:15:06.600Z,98.92
2018-12-05T08:15:46.899Z,98.49
2018-12-05T08:16:27.633Z,98.73
2018-12-05T08:17:08.091Z,98.78
2018-12-05T08:17:48.538Z,99.82
2018-12-05T08:18:29.027Z,99.54
2018-12-05T08:19:09.486Z,99.99
2018-12-05T08:19:50.623Z,99.06
2018-12-05T08:20:30.635Z,99.99
2018-12-05T08:21:11.039Z,99.99
2018-12-05T08:21:51.600Z,99.99
2018-12-05T08:22:32.668Z,99.99
2018-12-05T08:23:13.027Z,99.99
2018-12-05T08:23:53.713Z,99.99
2018-12-05T08:24:34.254Z,99.99
2018-12-05T08:25:14.946Z,99.99
2018-12-05T08:25:55.288Z,99.99
2018-12-05T08:26:35.853Z,99.99
2018-12-05T08:27:16.428Z,99.99
2018-12-05T08:27:57.226Z,99.99
2018-12-05T08:28:38.648Z,99.99
2018-12-05T08:29:18.635Z,99.99
2018-12-05T08:29:59.402Z,99.99
2018-12-05T08:30:41.124Z,99.99
2018-12-05T08:31:21.445Z,99.99
2018-12-05T08:32:01.999Z,99.99
2018-12-05T08:32:43.735Z,99.99
2018-12-05T08:33:24.210Z,99.99
2018-12-05T08:34:04.055Z,99.99
2018-12-05T08:34:44.445Z,99.99
2018-12-05T08:35:25.299Z,99.99
2018-12-05T08:36:06.102Z,99.99
2018-12-05T08:36:46.631Z,99.99
2018-12-05T08:37:28.118Z,99.99
2018-12-05T08:38:08.196Z,99.99
2018-12-05T08:38:48.777Z,99.99
2018-12-05T08:39:29.505Z,99.99
2018-12-05T08:40:10.052Z,99.99
2018-12-05T08:40:51.139Z,99.99
2018-12-05T08:41:31.151Z,99.99
2018-12-05T08:42:12.646Z,99.99
2018-12-05T08:42:52.238Z,99.99
2018-12-05T08:43:32.701Z,99.99
2018-12-05T08:44:13.221Z,99.99
2018-12-05T08:44:53.622Z,99.99
2018-12-05T08:45:34.163Z,99.99
2018-12-05T08:46:14.610Z,99.99
2018-12-05T08:46:55.204Z,99.99
2018-12-05T08:47:35.835Z,99.99
2018-12-05T08:48:16.462Z,99.99
2018-12-05T08:48:56.943Z,99.99
2018-12-05T08:49:37.563Z,99.99
2018-12-05T08:50:19.106Z,99.99
2018-12-05T08:50:58.789Z,99.99
2018-12-05T08:51:39.382Z,99.99
2018-12-05T08:52:20.225Z,99.99
2018-12-05T08:53:00.579Z,99.99
2018-12-05T08:53:41.071Z,99.99
2018-12-05T08:54:21.811Z,99.99
2018-12-05T08:55:02.242Z,99.99
2018-12-05T08:55:42.805Z,99.99
2018-12-05T08:56:24.154Z,99.99
2018-12-05T08:57:03.696Z,99.99
2018-12-05T08:57:44.145Z,99.99
2018-12-05T08:58:24.539Z,99.99
2018-12-05T08:59:04.942Z,99.99
2018-12-05T08:59:45.735Z,99.99
2018-12-05T09:00:26.134Z,99.99
2018-12-05T09:01:06.701Z,99.99
2018-12-05T09:01:47.276Z,99.99
2018-12-05T09:02:27.669Z,99.97
2018-12-05T09:03:08.169Z,98.83
2018-12-05T09:03:48.527Z,98.45
2018-12-05T09:04:28.975Z,99.73
2018-12-05T09:05:09.595Z,99.99
2018-12-05T09:05:50.044Z,99.07
2018-12-05T09:06:30.670Z,98.02
2018-12-05T09:07:11.244Z,96.12
2018-12-05T09:07:51.613Z,96.6
2018-12-05T09:08:32.066Z,96.22
2018-12-05T09:09:12.606Z,96.98
2018-12-05T09:09:53.490Z,96.6
2018-12-05T09:10:34.323Z,96.64
2018-12-05T09:11:14.895Z,97.22
2018-12-05T09:11:55.354Z,97.97
2018-12-05T09:12:35.827Z,98.73
2018-12-05T09:13:17.133Z,99.21
2018-12-05T09:13:56.732Z,99.21
2018-12-05T09:14:37.220Z,99.99
2018-12-05T09:15:17.672Z,99.99
2018-12-05T09:15:58.141Z,99.54
2018-12-05T09:16:38.784Z,99.92
2018-12-05T09:17:19.491Z,99.26
2018-12-05T09:17:59.774Z,99.99
2018-12-05T09:18:40.337Z,98.93
2018-12-05T09:19:20.869Z,97.6
2018-12-05T09:20:01.452Z,94.74
2018-12-05T09:20:41.943Z,94.65
2018-12-05T09:21:22.516Z,94.56
2018-12-05T09:22:02.990Z,94.37
2018-12-05T09:22:43.510Z,95.12
2018-12-05T09:23:24.049Z,95.32
2018-12-05T09:24:04.662Z,95.89
2018-12-05T09:24:45.220Z,96.65
2018-12-05T09:25:25.944Z,97.03
2018-12-05T09:26:06.250Z,96.36
2018-12-05T09:26:46.728Z,95.51
2018-12-05T09:27:27.131Z,94.18
2018-12-05T09:28:07.508Z,94.93
2018-12-05T09:28:47.993Z,94.7
2018-12-05T09:29:28.668Z,94.32
2018-12-05T09:30:09.037Z,94.42
2018-12-05T09:30:49.474Z,94.32
2018-12-05T09:31:30.046Z,94.22
2018-12-05T09:32:10.597Z,92.22
2018-12-05T09:32:51.206Z,89.56
2018-12-05T09:33:32.169Z,90.52
2018-12-05T09:34:12.091Z,92.22
2018-12-05T09:34:52.609Z,91.94
2018-12-05T09:35:33.292Z,91.37
2018-12-05T09:36:13.823Z,91.85
2018-12-05T09:36:54.533Z,92.13